首页
METAR-TAF:

METAR-TAF

机场 :

弗拉格斯塔夫, 亞利桑那州, 美国

纬度: 35-08-25N, 经度: 111-40-20W, 海拔: 2137米

当前天气观测

该预报发布于1小时和8分钟前的00:57 UTC
风速9节,风向西转西南,有时为16节阵风
温度 29°C
湿度 16%
气压 1025 hPa
能見度: 16.1公里
天空无云

METAR: KFLG 220057Z 25009G16KT 10SM CLR 29/01 A3027 RMK AO2 SLP142 T02890006 $

时间: 19:05 (02:05 UTC)

预报

该预报发布于2小时和37分钟前的23:28 UTC
预报有效从22日的 00点(UTC)到 22日的 24点(UTC)
风速10节,风向西转西南,有时为18节阵风
能見度: 10公里
少量云层高于12000英尺
从 22日的 0200点(UTC)
风速3节,风向多变
能見度: 10公里
天空无云
从 22日的 1800点(UTC)
风速11节,风向西南
能見度: 10公里
多云层高于11000英尺
短暂存在
从 22日的 19点(UTC)到 22日的 23点(UTC)
风速20节,风向北转东北,有时为35节阵风
阴天层高于10000英尺

TAF: KFLG 212328Z 2200/2224 24010G18KT P6SM FEW120 FM220200 VRB03KT P6SM SKC FM221800 22011KT P6SM BKN110 TEMPO 2219/2223 02020G35KT OVC100

超过4000个机场的气象观测和天气预报(METAR&TAF报告)。

可查询的气象台以黄色和红色小点在地图上表示。

将鼠标移到小点上方,可查看气象台名称。

然后点击查看天气观测和预报。

如需切换地图:点击带黑十字的绿色按钮放大地图;点击带横线的绿色按钮缩小地图;或者点击绿色箭头查看邻近地区的地图。


METAR-TAF: